Terminal Aerodrome Forecast
Issued by NWS

Home | Current Version | Previous Version | Graphics & Text | Print | Product List | Glossary On
Versions: 1 2 3 4 5 6 7 8 9 10 11 12 13 14 15
000
FTUS43 KTOP 260520
TAFFOE
TAF
KFOE 260520Z 2606/2706 15007KT P6SM SCT060 BKN120
     FM261100 12006KT P6SM -SHRA VCTS BKN090CB
     FM261600 19008KT P6SM SCT060
     FM270300 15005KT P6SM SCT200=

USA.gov is the U.S. government's official web portal to all federal, state and local government web resources and services.